Airfield :
LOGIN :

Register | Disclaimer

   EN    FR    IT 

 










Legend :    VFR   Marginal VFR   IFR   Intensive IFR   Very Intensive IFR
Visi :
Ceiling :
>= 8 km
>= 3000ft
5 to 8 km
1000 to 3000 ft
1500m to 5 km
500 to 1000 ft
800 to 1500m
200 to 500 ft
< 800m
< 200 ft
Symbols :   Thunderstorms  Fog  Heavy snow  Heavy precipitations  Wind > 20 kt
SIGMETs :     Misc.  Thunderstorms  Icing  Turbulence  Mountain Waves  Volcanic Ashes







- Airport Elevation : 876 ft
- IATA code : MBX


LJMB - Maribor

CURRENT METAR :
  • 151530Z 35004KT 4000 RA BR SCT010 OVC027 03/02 Q1001 R32/210095

EXPIRED METARs :
  • 151500Z 36004KT 330V030 4000 RA BR SCT010 OVC027 03/01 Q1001
  • 151430Z 34006KT 4000 RA BR SCT010 OVC027 03/02 Q1001
  • 151400Z 34008KT 4000 RA BR OVC023 04/02 Q1000
  • 151330Z 34010KT 4000 RA BR OVC023 04/03 Q1000
  • 151300Z 34009KT 7000 RA OVC022 05/03 Q1000

TAF TAF LJMB
Valid from the 15 at 15:00 until the 16 at 15:00 UTC


151400Z 1515/1615 36008KT 9999 SCT030 BKN050
TEMPO 1515/1516 5000 -RA BR BKN025 OVC040
BECMG 1516/1518 3500 RA BR BKN020 OVC030
BECMG 1518/1521 2500 SN BKN010 OVC020
BECMG 1600/1603 36005KT 4500 -SN BR SCT010 OVC020
BECMG 1603/1606 9999 NSW FEW010 BKN080
TEMPO 1606/1615 18004KT
No reported NOTAMs for that airfield.



MET'MAP, your aeronautical weather chart ! - Copyright ORBIFLY December 2007 - Disclaimer

ORBIFLY MET'MAP TEAM :

Programming & Development : Alexandra Zaïnal
Concept & Development : Baudouin d'Aumeries
Co-Development & Prog : Marc-Olivier Méhu
Technical & hardware support : Manuel Goepfert

Contact : metmap@orbifly.com




SOURCES & CREDITS :

   NOAA